sensor_id;sensor_type;location;lat;lon;timestamp;temperature;humidity
14057;DHT22;7103;54.300;10.180;2023-07-20T00:00:01;14.60;1.00
14057;DHT22;7103;54.300;10.180;2023-07-20T00:02:28;14.60;1.00
14057;DHT22;7103;54.300;10.180;2023-07-20T00:04:55;14.60;1.00
14057;DHT22;7103;54.300;10.180;2023-07-20T00:07:22;14.60;1.00
14057;DHT22;7103;54.300;10.180;2023-07-20T00:09:49;14.50;1.00
14057;DHT22;7103;54.300;10.180;2023-07-20T00:12:16;14.50;1.00
14057;DHT22;7103;54.300;10.180;2023-07-20T00:14:44;14.50;1.00
14057;DHT22;7103;54.300;10.180;2023-07-20T00:17:12;14.50;1.00
14057;DHT22;7103;54.300;10.180;2023-07-20T00:19:39;14.50;1.00
14057;DHT22;7103;54.300;10.180;2023-07-20T00:22:06;14.40;1.00
14057;DHT22;7103;54.300;10.180;2023-07-20T00:24:33;14.30;1.00
14057;DHT22;7103;54.300;10.180;2023-07-20T00:27:01;14.30;1.00
14057;DHT22;7103;54.300;10.180;2023-07-20T00:29:29;14.20;1.00
14057;DHT22;7103;54.300;10.180;2023-07-20T00:31:56;14.10;1.00
14057;DHT22;7103;54.300;10.180;2023-07-20T00:34:24;14.10;1.00
14057;DHT22;7103;54.300;10.180;2023-07-20T00:36:51;14.10;1.00
14057;DHT22;7103;54.300;10.180;2023-07-20T00:39:18;14.00;1.00
14057;DHT22;7103;54.300;10.180;2023-07-20T00:41:45;14.00;1.00
14057;DHT22;7103;54.300;10.180;2023-07-20T00:44:12;14.00;1.00
14057;DHT22;7103;54.300;10.180;2023-07-20T00:46:39;14.00;1.00
14057;DHT22;7103;54.300;10.180;2023-07-20T00:49:08;14.00;1.00
14057;DHT22;7103;54.300;10.180;2023-07-20T00:51:35;14.10;1.00
14057;DHT22;7103;54.300;10.180;2023-07-20T00:54:03;14.10;1.00
14057;DHT22;7103;54.300;10.180;2023-07-20T00:56:30;14.00;1.00
14057;DHT22;7103;54.300;10.180;2023-07-20T00:58:57;14.00;1.00
14057;DHT22;7103;54.300;10.180;2023-07-20T01:01:24;14.00;1.00
14057;DHT22;7103;54.300;10.180;2023-07-20T01:03:52;13.90;1.00
14057;DHT22;7103;54.300;10.180;2023-07-20T01:09:10;13.80;1.00
14057;DHT22;7103;54.300;10.180;2023-07-20T01:12:08;13.70;1.00
14057;DHT22;7103;54.300;10.180;2023-07-20T01:14:37;13.70;1.00
14057;DHT22;7103;54.300;10.180;2023-07-20T01:17:05;13.70;1.00
14057;DHT22;7103;54.300;10.180;2023-07-20T01:19:32;13.70;1.00
14057;DHT22;7103;54.300;10.180;2023-07-20T01:30:35;13.60;1.00
14057;DHT22;7103;54.300;10.180;2023-07-20T01:33:07;13.60;1.00
14057;DHT22;7103;54.300;10.180;2023-07-20T01:35:35;13.60;1.00
14057;DHT22;7103;54.300;10.180;2023-07-20T01:38:04;13.60;1.00
14057;DHT22;7103;54.300;10.180;2023-07-20T01:40:31;13.50;1.00
14057;DHT22;7103;54.300;10.180;2023-07-20T01:42:58;13.50;1.00
14057;DHT22;7103;54.300;10.180;2023-07-20T01:45:26;13.50;1.00
14057;DHT22;7103;54.300;10.180;2023-07-20T01:47:53;13.50;1.00
14057;DHT22;7103;54.300;10.180;2023-07-20T01:50:20;13.60;1.00
14057;DHT22;7103;54.300;10.180;2023-07-20T01:52:47;13.50;1.00
14057;DHT22;7103;54.300;10.180;2023-07-20T01:55:15;13.50;1.00
14057;DHT22;7103;54.300;10.180;2023-07-20T01:57:42;13.30;1.00
14057;DHT22;7103;54.300;10.180;2023-07-20T02:00:09;13.30;1.00
14057;DHT22;7103;54.300;10.180;2023-07-20T02:02:36;13.30;1.00
14057;DHT22;7103;54.300;10.180;2023-07-20T02:05:03;13.20;1.00
14057;DHT22;7103;54.300;10.180;2023-07-20T02:07:31;13.20;1.00
14057;DHT22;7103;54.300;10.180;2023-07-20T02:09:57;13.20;1.00
14057;DHT22;7103;54.300;10.180;2023-07-20T02:12:25;13.20;1.00
14057;DHT22;7103;54.300;10.180;2023-07-20T02:14:52;13.20;1.00
14057;DHT22;7103;54.300;10.180;2023-07-20T02:17:19;13.20;1.00
14057;DHT22;7103;54.300;10.180;2023-07-20T02:19:49;13.10;1.00
14057;DHT22;7103;54.300;10.180;2023-07-20T02:22:17;13.10;1.00
14057;DHT22;7103;54.300;10.180;2023-07-20T02:24:44;13.00;1.00
14057;DHT22;7103;54.300;10.180;2023-07-20T02:27:11;13.00;1.00
14057;DHT22;7103;54.300;10.180;2023-07-20T02:29:38;13.00;1.00
14057;DHT22;7103;54.300;10.180;2023-07-20T02:32:06;13.00;1.00
14057;DHT22;7103;54.300;10.180;2023-07-20T02:34:33;13.00;1.00
14057;DHT22;7103;54.300;10.180;2023-07-20T02:37:01;13.00;1.00
14057;DHT22;7103;54.300;10.180;2023-07-20T02:39:28;13.10;1.00
14057;DHT22;7103;54.300;10.180;2023-07-20T02:41:55;13.20;1.00
14057;DHT22;7103;54.300;10.180;2023-07-20T02:44:22;13.20;1.00
14057;DHT22;7103;54.300;10.180;2023-07-20T02:46:50;13.20;1.00
14057;DHT22;7103;54.300;10.180;2023-07-20T02:49:17;13.30;1.00
14057;DHT22;7103;54.300;10.180;2023-07-20T02:51:44;13.30;1.00
14057;DHT22;7103;54.300;10.180;2023-07-20T02:54:11;13.40;1.00
14057;DHT22;7103;54.300;10.180;2023-07-20T02:56:39;13.30;1.00
14057;DHT22;7103;54.300;10.180;2023-07-20T02:59:06;13.20;1.00
14057;DHT22;7103;54.300;10.180;2023-07-20T03:01:33;13.20;1.00
14057;DHT22;7103;54.300;10.180;2023-07-20T03:04:00;13.20;1.00
14057;DHT22;7103;54.300;10.180;2023-07-20T03:06:28;13.20;1.00
14057;DHT22;7103;54.300;10.180;2023-07-20T03:08:55;13.20;1.00
14057;DHT22;7103;54.300;10.180;2023-07-20T03:11:22;13.20;1.00
14057;DHT22;7103;54.300;10.180;2023-07-20T03:13:49;13.10;1.00
14057;DHT22;7103;54.300;10.180;2023-07-20T03:16:19;13.20;1.00
14057;DHT22;7103;54.300;10.180;2023-07-20T03:18:47;13.10;1.00
14057;DHT22;7103;54.300;10.180;2023-07-20T03:21:14;13.10;1.00
14057;DHT22;7103;54.300;10.180;2023-07-20T03:23:42;13.10;1.00
14057;DHT22;7103;54.300;10.180;2023-07-20T03:26:09;13.20;1.00
14057;DHT22;7103;54.300;10.180;2023-07-20T03:28:37;13.10;1.00
14057;DHT22;7103;54.300;10.180;2023-07-20T03:31:05;13.10;1.00
14057;DHT22;7103;54.300;10.180;2023-07-20T03:33:32;13.10;1.00
14057;DHT22;7103;54.300;10.180;2023-07-20T03:36:00;13.10;1.00
14057;DHT22;7103;54.300;10.180;2023-07-20T03:38:28;13.10;1.00
14057;DHT22;7103;54.300;10.180;2023-07-20T03:40:56;13.10;1.00
14057;DHT22;7103;54.300;10.180;2023-07-20T03:43:25;13.10;1.00
14057;DHT22;7103;54.300;10.180;2023-07-20T03:45:53;13.10;1.00
14057;DHT22;7103;54.300;10.180;2023-07-20T03:48:22;13.20;1.00
14057;DHT22;7103;54.300;10.180;2023-07-20T03:50:50;13.30;1.00
14057;DHT22;7103;54.300;10.180;2023-07-20T03:53:18;13.40;1.00
14057;DHT22;7103;54.300;10.180;2023-07-20T03:55:50;13.40;1.00
14057;DHT22;7103;54.300;10.180;2023-07-20T03:58:18;13.40;1.00
14057;DHT22;7103;54.300;10.180;2023-07-20T04:00:47;13.40;1.00
14057;DHT22;7103;54.300;10.180;2023-07-20T04:03:14;13.40;1.00
14057;DHT22;7103;54.300;10.180;2023-07-20T04:05:42;13.50;1.00
14057;DHT22;7103;54.300;10.180;2023-07-20T04:08:10;13.60;1.00
14057;DHT22;7103;54.300;10.180;2023-07-20T04:10:38;13.60;1.00
14057;DHT22;7103;54.300;10.180;2023-07-20T04:13:05;13.60;1.00
14057;DHT22;7103;54.300;10.180;2023-07-20T04:15:32;13.60;1.00
14057;DHT22;7103;54.300;10.180;2023-07-20T04:18:00;13.60;1.00
14057;DHT22;7103;54.300;10.180;2023-07-20T04:20:28;13.70;1.00
14057;DHT22;7103;54.300;10.180;2023-07-20T04:22:55;13.80;1.00
14057;DHT22;7103;54.300;10.180;2023-07-20T04:25:22;13.80;1.00
14057;DHT22;7103;54.300;10.180;2023-07-20T04:27:49;13.70;1.00
14057;DHT22;7103;54.300;10.180;2023-07-20T04:30:17;13.70;1.00
14057;DHT22;7103;54.300;10.180;2023-07-20T04:32:47;13.70;1.00
14057;DHT22;7103;54.300;10.180;2023-07-20T04:35:50;13.70;1.00
14057;DHT22;7103;54.300;10.180;2023-07-20T04:38:18;13.70;1.00
14057;DHT22;7103;54.300;10.180;2023-07-20T04:40:46;13.70;1.00
14057;DHT22;7103;54.300;10.180;2023-07-20T04:43:17;13.70;1.00
14057;DHT22;7103;54.300;10.180;2023-07-20T04:45:45;13.80;1.00
14057;DHT22;7103;54.300;10.180;2023-07-20T04:48:16;13.70;1.00
14057;DHT22;7103;54.300;10.180;2023-07-20T04:50:45;13.70;1.00
14057;DHT22;7103;54.300;10.180;2023-07-20T04:53:13;13.70;1.00
14057;DHT22;7103;54.300;10.180;2023-07-20T04:55:40;13.70;1.00
14057;DHT22;7103;54.300;10.180;2023-07-20T04:58:08;13.70;1.00
14057;DHT22;7103;54.300;10.180;2023-07-20T05:00:37;13.70;1.00
14057;DHT22;7103;54.300;10.180;2023-07-20T05:03:05;13.90;1.00
14057;DHT22;7103;54.300;10.180;2023-07-20T05:05:32;13.90;1.00
14057;DHT22;7103;54.300;10.180;2023-07-20T05:08:00;14.10;1.00
14057;DHT22;7103;54.300;10.180;2023-07-20T05:10:27;14.30;1.00
14057;DHT22;7103;54.300;10.180;2023-07-20T05:12:54;14.40;1.00
14057;DHT22;7103;54.300;10.180;2023-07-20T05:15:21;14.50;1.00
14057;DHT22;7103;54.300;10.180;2023-07-20T05:17:48;14.60;1.00
14057;DHT22;7103;54.300;10.180;2023-07-20T05:20:15;14.60;1.00
14057;DHT22;7103;54.300;10.180;2023-07-20T05:22:43;14.60;1.00
14057;DHT22;7103;54.300;10.180;2023-07-20T05:25:10;14.70;1.00
14057;DHT22;7103;54.300;10.180;2023-07-20T05:27:38;14.90;1.00
14057;DHT22;7103;54.300;10.180;2023-07-20T05:30:06;15.00;1.00
14057;DHT22;7103;54.300;10.180;2023-07-20T05:32:34;15.00;1.00
14057;DHT22;7103;54.300;10.180;2023-07-20T05:35:01;15.00;1.00
14057;DHT22;7103;54.300;10.180;2023-07-20T05:37:29;15.00;1.00
14057;DHT22;7103;54.300;10.180;2023-07-20T05:39:57;15.00;1.00
14057;DHT22;7103;54.300;10.180;2023-07-20T05:42:24;15.10;1.00
14057;DHT22;7103;54.300;10.180;2023-07-20T05:44:51;15.40;1.00
14057;DHT22;7103;54.300;10.180;2023-07-20T05:47:19;15.80;1.00
14057;DHT22;7103;54.300;10.180;2023-07-20T05:49:47;16.10;1.00
14057;DHT22;7103;54.300;10.180;2023-07-20T05:52:14;16.30;1.00
14057;DHT22;7103;54.300;10.180;2023-07-20T05:54:41;16.50;1.00
14057;DHT22;7103;54.300;10.180;2023-07-20T05:57:09;16.60;1.00
14057;DHT22;7103;54.300;10.180;2023-07-20T05:59:37;16.90;1.00
14057;DHT22;7103;54.300;10.180;2023-07-20T06:02:06;17.50;1.00
14057;DHT22;7103;54.300;10.180;2023-07-20T06:04:34;18.20;1.00
14057;DHT22;7103;54.300;10.180;2023-07-20T06:07:02;18.70;1.00
14057;DHT22;7103;54.300;10.180;2023-07-20T06:09:29;19.20;1.00
14057;DHT22;7103;54.300;10.180;2023-07-20T06:11:57;19.30;1.00
14057;DHT22;7103;54.300;10.180;2023-07-20T06:14:24;19.50;1.00
14057;DHT22;7103;54.300;10.180;2023-07-20T06:16:51;19.80;1.00
14057;DHT22;7103;54.300;10.180;2023-07-20T06:19:18;19.60;1.00
14057;DHT22;7103;54.300;10.180;2023-07-20T06:21:46;19.40;1.00
14057;DHT22;7103;54.300;10.180;2023-07-20T06:24:13;19.00;1.00
14057;DHT22;7103;54.300;10.180;2023-07-20T06:26:40;19.20;1.00
14057;DHT22;7103;54.300;10.180;2023-07-20T06:29:08;19.60;1.00
14057;DHT22;7103;54.300;10.180;2023-07-20T06:31:38;19.90;99.90
14057;DHT22;7103;54.300;10.180;2023-07-20T06:34:05;20.30;99.90
14057;DHT22;7103;54.300;10.180;2023-07-20T06:36:32;20.60;99.90
14057;DHT22;7103;54.300;10.180;2023-07-20T06:38:59;21.00;99.90
14057;DHT22;7103;54.300;10.180;2023-07-20T06:41:30;21.20;99.90
14057;DHT22;7103;54.300;10.180;2023-07-20T06:44:00;21.50;99.90
14057;DHT22;7103;54.300;10.180;2023-07-20T06:46:27;21.80;99.90
14057;DHT22;7103;54.300;10.180;2023-07-20T06:48:54;21.60;99.90
14057;DHT22;7103;54.300;10.180;2023-07-20T06:51:24;21.20;99.90
14057;DHT22;7103;54.300;10.180;2023-07-20T06:53:52;21.00;99.90
14057;DHT22;7103;54.300;10.180;2023-07-20T06:56:19;21.10;99.90
14057;DHT22;7103;54.300;10.180;2023-07-20T06:58:51;21.10;99.90
14057;DHT22;7103;54.300;10.180;2023-07-20T07:01:18;21.60;99.90
14057;DHT22;7103;54.300;10.180;2023-07-20T07:03:48;21.40;99.90
14057;DHT22;7103;54.300;10.180;2023-07-20T07:06:21;21.60;99.90
14057;DHT22;7103;54.300;10.180;2023-07-20T07:08:50;21.10;99.90
14057;DHT22;7103;54.300;10.180;2023-07-20T07:11:17;21.00;99.90
14057;DHT22;7103;54.300;10.180;2023-07-20T07:13:44;20.40;99.90
14057;DHT22;7103;54.300;10.180;2023-07-20T07:16:16;19.90;99.90
14057;DHT22;7103;54.300;10.180;2023-07-20T07:18:47;19.60;99.90
14057;DHT22;7103;54.300;10.180;2023-07-20T07:21:14;19.40;99.90
14057;DHT22;7103;54.300;10.180;2023-07-20T07:23:41;19.60;99.90
14057;DHT22;7103;54.300;10.180;2023-07-20T07:26:09;19.60;99.90
14057;DHT22;7103;54.300;10.180;2023-07-20T07:28:37;19.20;99.90
14057;DHT22;7103;54.300;10.180;2023-07-20T07:31:07;19.00;99.90
14057;DHT22;7103;54.300;10.180;2023-07-20T07:33:34;18.60;99.90
14057;DHT22;7103;54.300;10.180;2023-07-20T07:36:02;18.40;99.90
14057;DHT22;7103;54.300;10.180;2023-07-20T07:38:29;18.20;99.90
14057;DHT22;7103;54.300;10.180;2023-07-20T07:41:16;17.90;99.90
14057;DHT22;7103;54.300;10.180;2023-07-20T07:43:43;17.80;99.90
14057;DHT22;7103;54.300;10.180;2023-07-20T07:46:10;18.90;99.90
14057;DHT22;7103;54.300;10.180;2023-07-20T07:48:37;20.20;99.90
14057;DHT22;7103;54.300;10.180;2023-07-20T07:51:04;21.30;99.90
14057;DHT22;7103;54.300;10.180;2023-07-20T07:53:32;21.60;99.90
14057;DHT22;7103;54.300;10.180;2023-07-20T07:55:59;21.10;99.90
14057;DHT22;7103;54.300;10.180;2023-07-20T07:58:27;21.50;99.90
14057;DHT22;7103;54.300;10.180;2023-07-20T08:00:54;21.40;99.90
14057;DHT22;7103;54.300;10.180;2023-07-20T08:03:21;21.20;99.90
14057;DHT22;7103;54.300;10.180;2023-07-20T08:05:51;20.90;99.90
14057;DHT22;7103;54.300;10.180;2023-07-20T08:08:19;20.40;99.90
14057;DHT22;7103;54.300;10.180;2023-07-20T08:10:46;20.10;99.90
14057;DHT22;7103;54.300;10.180;2023-07-20T08:13:14;20.00;99.90
14057;DHT22;7103;54.300;10.180;2023-07-20T08:15:50;20.10;99.90
14057;DHT22;7103;54.300;10.180;2023-07-20T08:18:21;20.10;99.90
14057;DHT22;7103;54.300;10.180;2023-07-20T08:20:49;21.20;99.90
14057;DHT22;7103;54.300;10.180;2023-07-20T08:23:17;22.30;99.90
14057;DHT22;7103;54.300;10.180;2023-07-20T08:25:44;22.50;99.90
14057;DHT22;7103;54.300;10.180;2023-07-20T08:28:13;22.70;99.90
14057;DHT22;7103;54.300;10.180;2023-07-20T08:30:42;22.20;99.90
14057;DHT22;7103;54.300;10.180;2023-07-20T08:33:10;21.30;99.90
14057;DHT22;7103;54.300;10.180;2023-07-20T08:35:37;20.50;99.90
14057;DHT22;7103;54.300;10.180;2023-07-20T08:38:05;20.20;99.90
14057;DHT22;7103;54.300;10.180;2023-07-20T08:40:32;20.80;99.90
14057;DHT22;7103;54.300;10.180;2023-07-20T08:43:00;21.80;99.90
14057;DHT22;7103;54.300;10.180;2023-07-20T08:45:28;21.80;99.90
14057;DHT22;7103;54.300;10.180;2023-07-20T08:47:59;21.40;99.90
14057;DHT22;7103;54.300;10.180;2023-07-20T08:50:30;21.20;99.90
14057;DHT22;7103;54.300;10.180;2023-07-20T08:52:58;21.00;99.90
14057;DHT22;7103;54.300;10.180;2023-07-20T08:55:29;20.60;99.90
14057;DHT22;7103;54.300;10.180;2023-07-20T08:57:58;20.90;99.90
14057;DHT22;7103;54.300;10.180;2023-07-20T09:00:26;21.60;99.90
14057;DHT22;7103;54.300;10.180;2023-07-20T09:02:54;22.70;99.90
14057;DHT22;7103;54.300;10.180;2023-07-20T09:05:23;23.40;99.90
14057;DHT22;7103;54.300;10.180;2023-07-20T09:07:52;23.50;99.90
14057;DHT22;7103;54.300;10.180;2023-07-20T09:10:21;23.20;99.90
14057;DHT22;7103;54.300;10.180;2023-07-20T09:12:49;23.40;99.90
14057;DHT22;7103;54.300;10.180;2023-07-20T09:15:16;23.60;99.90
14057;DHT22;7103;54.300;10.180;2023-07-20T09:17:48;23.10;99.90
14057;DHT22;7103;54.300;10.180;2023-07-20T09:20:17;23.30;99.90
14057;DHT22;7103;54.300;10.180;2023-07-20T09:22:51;23.80;99.90
14057;DHT22;7103;54.300;10.180;2023-07-20T09:25:20;24.40;99.90
14057;DHT22;7103;54.300;10.180;2023-07-20T09:27:50;25.30;99.90
14057;DHT22;7103;54.300;10.180;2023-07-20T09:30:18;25.20;99.90
14057;DHT22;7103;54.300;10.180;2023-07-20T09:32:47;24.80;99.90
14057;DHT22;7103;54.300;10.180;2023-07-20T09:35:21;24.40;99.90
14057;DHT22;7103;54.300;10.180;2023-07-20T09:37:57;23.50;99.90
14057;DHT22;7103;54.300;10.180;2023-07-20T09:40:29;22.60;99.90
14057;DHT22;7103;54.300;10.180;2023-07-20T09:42:59;22.20;99.90
14057;DHT22;7103;54.300;10.180;2023-07-20T09:45:34;22.30;99.90
14057;DHT22;7103;54.300;10.180;2023-07-20T09:48:06;22.00;99.90
14057;DHT22;7103;54.300;10.180;2023-07-20T09:50:50;21.70;99.90
14057;DHT22;7103;54.300;10.180;2023-07-20T09:53:21;21.70;99.90
14057;DHT22;7103;54.300;10.180;2023-07-20T09:55:48;22.40;99.90
14057;DHT22;7103;54.300;10.180;2023-07-20T09:58:16;23.40;99.90
14057;DHT22;7103;54.300;10.180;2023-07-20T10:00:45;24.40;99.90
14057;DHT22;7103;54.300;10.180;2023-07-20T10:03:21;24.40;99.90
14057;DHT22;7103;54.300;10.180;2023-07-20T10:06:00;23.60;99.90
14057;DHT22;7103;54.300;10.180;2023-07-20T10:08:30;22.70;99.90
14057;DHT22;7103;54.300;10.180;2023-07-20T10:11:02;22.20;99.90
14057;DHT22;7103;54.300;10.180;2023-07-20T10:13:31;22.50;99.90
14057;DHT22;7103;54.300;10.180;2023-07-20T10:16:02;23.70;99.90
14057;DHT22;7103;54.300;10.180;2023-07-20T10:21:31;24.00;99.90
14057;DHT22;7103;54.300;10.180;2023-07-20T10:24:04;23.70;99.90
14057;DHT22;7103;54.300;10.180;2023-07-20T10:26:31;23.60;99.90
14057;DHT22;7103;54.300;10.180;2023-07-20T10:29:03;23.50;99.90
14057;DHT22;7103;54.300;10.180;2023-07-20T10:31:30;22.70;99.90
14057;DHT22;7103;54.300;10.180;2023-07-20T10:33:58;22.20;99.90
14057;DHT22;7103;54.300;10.180;2023-07-20T10:36:27;22.50;99.90
14057;DHT22;7103;54.300;10.180;2023-07-20T10:38:58;21.90;99.90
14057;DHT22;7103;54.300;10.180;2023-07-20T10:41:33;21.50;99.90
14057;DHT22;7103;54.300;10.180;2023-07-20T10:44:07;20.90;99.90
14057;DHT22;7103;54.300;10.180;2023-07-20T10:46:42;20.40;99.90
14057;DHT22;7103;54.300;10.180;2023-07-20T10:49:11;20.30;99.90
14057;DHT22;7103;54.300;10.180;2023-07-20T10:51:59;20.30;99.90
14057;DHT22;7103;54.300;10.180;2023-07-20T10:56:56;21.70;99.90
14057;DHT22;7103;54.300;10.180;2023-07-20T11:01:57;22.90;99.90
14057;DHT22;7103;54.300;10.180;2023-07-20T11:04:42;23.20;99.90
14057;DHT22;7103;54.300;10.180;2023-07-20T11:07:10;23.50;99.90
14057;DHT22;7103;54.300;10.180;2023-07-20T11:09:38;24.20;99.90
14057;DHT22;7103;54.300;10.180;2023-07-20T11:12:14;24.60;99.90
14057;DHT22;7103;54.300;10.180;2023-07-20T11:14:55;24.10;99.90
14057;DHT22;7103;54.300;10.180;2023-07-20T11:17:30;23.40;99.90
14057;DHT22;7103;54.300;10.180;2023-07-20T11:19:59;22.70;99.90
14057;DHT22;7103;54.300;10.180;2023-07-20T11:22:33;22.20;99.90
14057;DHT22;7103;54.300;10.180;2023-07-20T11:25:01;22.20;99.90
14057;DHT22;7103;54.300;10.180;2023-07-20T11:27:28;22.40;99.90
14057;DHT22;7103;54.300;10.180;2023-07-20T11:29:56;22.90;99.90
14057;DHT22;7103;54.300;10.180;2023-07-20T11:32:24;23.40;99.90
14057;DHT22;7103;54.300;10.180;2023-07-20T11:34:51;23.60;99.90
14057;DHT22;7103;54.300;10.180;2023-07-20T11:37:19;24.00;99.90
14057;DHT22;7103;54.300;10.180;2023-07-20T11:39:46;24.00;99.90
14057;DHT22;7103;54.300;10.180;2023-07-20T11:42:14;24.30;99.90
14057;DHT22;7103;54.300;10.180;2023-07-20T11:45:05;24.40;99.90
14057;DHT22;7103;54.300;10.180;2023-07-20T11:47:33;24.00;99.90
14057;DHT22;7103;54.300;10.180;2023-07-20T11:50:03;24.30;99.90
14057;DHT22;7103;54.300;10.180;2023-07-20T11:52:31;25.00;99.90
14057;DHT22;7103;54.300;10.180;2023-07-20T11:54:58;25.40;99.90
14057;DHT22;7103;54.300;10.180;2023-07-20T11:57:26;25.50;99.90
14057;DHT22;7103;54.300;10.180;2023-07-20T11:59:54;25.70;99.90
14057;DHT22;7103;54.300;10.180;2023-07-20T12:02:27;25.40;99.90
14057;DHT22;7103;54.300;10.180;2023-07-20T12:04:55;24.60;99.90
14057;DHT22;7103;54.300;10.180;2023-07-20T12:07:22;24.00;99.90
14057;DHT22;7103;54.300;10.180;2023-07-20T12:10:10;23.50;99.90
14057;DHT22;7103;54.300;10.180;2023-07-20T12:12:39;23.60;99.90
14057;DHT22;7103;54.300;10.180;2023-07-20T12:17:49;23.80;99.90
14057;DHT22;7103;54.300;10.180;2023-07-20T12:20:34;23.50;99.90
14057;DHT22;7103;54.300;10.180;2023-07-20T12:23:09;23.20;99.90
14057;DHT22;7103;54.300;10.180;2023-07-20T12:25:44;22.70;99.90
14057;DHT22;7103;54.300;10.180;2023-07-20T12:28:13;22.80;99.90
14057;DHT22;7103;54.300;10.180;2023-07-20T12:30:42;22.90;99.90
14057;DHT22;7103;54.300;10.180;2023-07-20T12:33:10;23.30;99.90
14057;DHT22;7103;54.300;10.180;2023-07-20T12:35:38;23.50;99.90
14057;DHT22;7103;54.300;10.180;2023-07-20T12:38:05;24.00;99.90
14057;DHT22;7103;54.300;10.180;2023-07-20T12:40:34;24.20;99.90
14057;DHT22;7103;54.300;10.180;2023-07-20T12:43:01;24.20;99.90
14057;DHT22;7103;54.300;10.180;2023-07-20T12:45:29;23.80;99.90
14057;DHT22;7103;54.300;10.180;2023-07-20T12:47:56;23.30;99.90
14057;DHT22;7103;54.300;10.180;2023-07-20T12:50:23;23.00;99.90
14057;DHT22;7103;54.300;10.180;2023-07-20T12:52:50;22.80;99.90
14057;DHT22;7103;54.300;10.180;2023-07-20T12:55:17;22.50;99.90
14057;DHT22;7103;54.300;10.180;2023-07-20T12:57:45;22.10;99.90
14057;DHT22;7103;54.300;10.180;2023-07-20T13:00:14;22.00;99.90
14057;DHT22;7103;54.300;10.180;2023-07-20T13:02:42;21.90;99.90
14057;DHT22;7103;54.300;10.180;2023-07-20T13:05:10;21.70;99.90
14057;DHT22;7103;54.300;10.180;2023-07-20T13:07:39;21.50;99.90
14057;DHT22;7103;54.300;10.180;2023-07-20T13:10:10;21.30;99.90
14057;DHT22;7103;54.300;10.180;2023-07-20T13:12:38;20.90;99.90
14057;DHT22;7103;54.300;10.180;2023-07-20T13:15:07;20.30;99.90
14057;DHT22;7103;54.300;10.180;2023-07-20T13:17:35;20.00;99.90
14057;DHT22;7103;54.300;10.180;2023-07-20T13:20:03;19.90;99.90
14057;DHT22;7103;54.300;10.180;2023-07-20T13:22:32;19.80;99.90
14057;DHT22;7103;54.300;10.180;2023-07-20T13:24:59;20.10;99.90
14057;DHT22;7103;54.300;10.180;2023-07-20T13:27:26;20.40;99.90
14057;DHT22;7103;54.300;10.180;2023-07-20T13:29:54;20.90;99.90
14057;DHT22;7103;54.300;10.180;2023-07-20T13:32:24;21.00;99.90
14057;DHT22;7103;54.300;10.180;2023-07-20T13:34:51;20.90;99.90
14057;DHT22;7103;54.300;10.180;2023-07-20T13:37:18;21.00;99.90
14057;DHT22;7103;54.300;10.180;2023-07-20T13:39:48;21.30;99.90
14057;DHT22;7103;54.300;10.180;2023-07-20T13:42:15;21.30;99.90
14057;DHT22;7103;54.300;10.180;2023-07-20T13:44:45;21.40;99.90
14057;DHT22;7103;54.300;10.180;2023-07-20T13:47:14;21.20;99.90
14057;DHT22;7103;54.300;10.180;2023-07-20T13:49:44;21.40;99.90
14057;DHT22;7103;54.300;10.180;2023-07-20T13:52:15;21.50;99.90
14057;DHT22;7103;54.300;10.180;2023-07-20T13:54:45;21.40;99.90
14057;DHT22;7103;54.300;10.180;2023-07-20T13:57:19;21.60;99.90
14057;DHT22;7103;54.300;10.180;2023-07-20T13:59:47;21.90;99.90
14057;DHT22;7103;54.300;10.180;2023-07-20T14:02:14;21.90;99.90
14057;DHT22;7103;54.300;10.180;2023-07-20T14:04:45;22.20;99.90
14057;DHT22;7103;54.300;10.180;2023-07-20T14:07:13;22.30;99.90
14057;DHT22;7103;54.300;10.180;2023-07-20T14:09:43;22.40;99.90
14057;DHT22;7103;54.300;10.180;2023-07-20T14:12:13;22.50;99.90
14057;DHT22;7103;54.300;10.180;2023-07-20T14:14:44;22.40;99.90
14057;DHT22;7103;54.300;10.180;2023-07-20T14:17:11;22.50;99.90
14057;DHT22;7103;54.300;10.180;2023-07-20T14:19:39;22.60;99.90
14057;DHT22;7103;54.300;10.180;2023-07-20T14:22:09;22.80;99.90
14057;DHT22;7103;54.300;10.180;2023-07-20T14:24:38;22.60;99.90
14057;DHT22;7103;54.300;10.180;2023-07-20T14:27:05;22.50;99.90
14057;DHT22;7103;54.300;10.180;2023-07-20T14:29:33;22.00;99.90
14057;DHT22;7103;54.300;10.180;2023-07-20T14:32:03;22.00;99.90
14057;DHT22;7103;54.300;10.180;2023-07-20T14:34:33;22.10;99.90
14057;DHT22;7103;54.300;10.180;2023-07-20T14:37:05;22.10;99.90
14057;DHT22;7103;54.300;10.180;2023-07-20T14:39:32;22.40;99.90
14057;DHT22;7103;54.300;10.180;2023-07-20T14:42:00;22.50;99.90
14057;DHT22;7103;54.300;10.180;2023-07-20T14:44:27;22.60;99.90
14057;DHT22;7103;54.300;10.180;2023-07-20T14:46:54;22.60;99.90
14057;DHT22;7103;54.300;10.180;2023-07-20T14:49:39;22.50;99.90
14057;DHT22;7103;54.300;10.180;2023-07-20T14:52:07;22.50;99.90
14057;DHT22;7103;54.300;10.180;2023-07-20T14:54:37;22.40;99.90
14057;DHT22;7103;54.300;10.180;2023-07-20T14:57:05;22.30;99.90
14057;DHT22;7103;54.300;10.180;2023-07-20T14:59:34;21.80;99.90
14057;DHT22;7103;54.300;10.180;2023-07-20T15:02:01;21.30;99.90
14057;DHT22;7103;54.300;10.180;2023-07-20T15:04:28;21.30;99.90
14057;DHT22;7103;54.300;10.180;2023-07-20T15:06:55;21.40;99.90
14057;DHT22;7103;54.300;10.180;2023-07-20T15:09:23;21.50;99.90
14057;DHT22;7103;54.300;10.180;2023-07-20T15:11:51;21.60;99.90
14057;DHT22;7103;54.300;10.180;2023-07-20T15:14:18;21.60;99.90
14057;DHT22;7103;54.300;10.180;2023-07-20T15:16:45;21.50;99.90
14057;DHT22;7103;54.300;10.180;2023-07-20T15:19:15;21.30;99.90
14057;DHT22;7103;54.300;10.180;2023-07-20T15:21:43;20.90;99.90
14057;DHT22;7103;54.300;10.180;2023-07-20T15:24:11;20.60;99.90
14057;DHT22;7103;54.300;10.180;2023-07-20T15:26:38;20.60;99.90
14057;DHT22;7103;54.300;10.180;2023-07-20T15:29:06;20.60;99.90
14057;DHT22;7103;54.300;10.180;2023-07-20T15:31:33;20.80;99.90
14057;DHT22;7103;54.300;10.180;2023-07-20T15:34:03;21.20;99.90
14057;DHT22;7103;54.300;10.180;2023-07-20T15:36:30;21.20;99.90
14057;DHT22;7103;54.300;10.180;2023-07-20T15:38:57;21.20;99.90
14057;DHT22;7103;54.300;10.180;2023-07-20T15:41:24;20.90;99.90
14057;DHT22;7103;54.300;10.180;2023-07-20T15:43:52;20.50;99.90
14057;DHT22;7103;54.300;10.180;2023-07-20T15:48:47;20.90;99.90
14057;DHT22;7103;54.300;10.180;2023-07-20T15:51:14;21.00;99.90
14057;DHT22;7103;54.300;10.180;2023-07-20T15:53:41;20.80;99.90
14057;DHT22;7103;54.300;10.180;2023-07-20T15:56:08;20.60;99.90
14057;DHT22;7103;54.300;10.180;2023-07-20T15:58:35;20.70;99.90
14057;DHT22;7103;54.300;10.180;2023-07-20T16:01:03;20.60;99.90
14057;DHT22;7103;54.300;10.180;2023-07-20T16:03:30;20.80;99.90
14057;DHT22;7103;54.300;10.180;2023-07-20T16:06:01;20.90;99.90
14057;DHT22;7103;54.300;10.180;2023-07-20T16:08:31;20.90;99.90
14057;DHT22;7103;54.300;10.180;2023-07-20T16:10:58;20.60;99.90